Time;durP1;ratioP1;P1;durP2;ratioP2;P2;SDS_P1;SDS_P2;PMS_P1;PMS_P2;Temp;Humidity;BMP_temperature;BMP_pressure;BME280_temperature;BME280_humidity;BME280_pressure;Samples;Min_cycle;Max_cycle;Signal;HPM_P1;HPM_P2
2023/08/02 00:02:19;;;;;;;4.05;2.00;;;18.90;99.90;;;;;;4974264;28;20030;-64
2023/08/02 00:05:05;;;;;;;3.58;1.90;;;18.90;99.90;;;;;;4988539;28;20054;-64
2023/08/02 00:07:51;;;;;;;3.00;1.70;;;18.90;99.90;;;;;;4990307;28;20323;-63
2023/08/02 00:10:37;;;;;;;4.10;1.63;;;18.90;99.90;;;;;;4982240;28;20046;-64
2023/08/02 00:13:23;;;;;;;4.03;2.10;;;18.80;99.90;;;;;;4987332;28;20034;-65
2023/08/02 00:16:12;;;;;;;4.97;1.90;;;18.80;99.90;;;;;;4971684;28;20078;-64
2023/08/02 00:18:58;;;;;;;4.15;1.65;;;18.80;99.90;;;;;;4978488;28;20058;-64
2023/08/02 00:21:44;;;;;;;2.85;1.60;;;18.80;99.90;;;;;;4991181;28;20148;-65
2023/08/02 00:24:30;;;;;;;5.45;2.38;;;18.80;99.90;;;;;;4988007;28;20046;-65
2023/08/02 00:27:16;;;;;;;4.03;1.80;;;18.80;99.90;;;;;;4989863;28;20419;-64
2023/08/02 00:30:02;;;;;;;4.03;2.00;;;18.80;99.90;;;;;;4974518;28;20074;-65
2023/08/02 00:32:49;;;;;;;3.20;1.90;;;18.70;99.90;;;;;;4986760;28;20042;-64
2023/08/02 00:35:35;;;;;;;3.70;1.77;;;18.70;99.90;;;;;;4990262;28;20042;-65
2023/08/02 00:38:22;;;;;;;4.97;1.70;;;18.70;99.90;;;;;;4988491;28;20134;-65
2023/08/02 00:41:08;;;;;;;3.45;2.28;;;18.70;99.90;;;;;;4981736;28;20054;-65
2023/08/02 00:43:54;;;;;;;4.25;1.85;;;18.60;99.90;;;;;;4974136;28;20038;-64
2023/08/02 00:46:40;;;;;;;3.38;1.98;;;18.60;99.90;;;;;;4981861;28;20042;-64
2023/08/02 00:49:26;;;;;;;3.95;1.90;;;18.60;99.90;;;;;;4987801;28;20491;-63
2023/08/02 00:52:12;;;;;;;3.53;1.80;;;18.60;99.90;;;;;;4987988;28;20078;-64
2023/08/02 00:54:58;;;;;;;2.55;1.63;;;18.60;99.90;;;;;;4973054;28;20499;-63
2023/08/02 00:57:44;;;;;;;3.33;1.90;;;18.50;99.90;;;;;;4973160;28;20784;-63
2023/08/02 01:00:30;;;;;;;3.72;2.00;;;18.50;99.90;;;;;;4989717;28;20066;-64
2023/08/02 01:03:16;;;;;;;4.10;2.13;;;18.50;99.90;;;;;;4987854;28;20097;-65
2023/08/02 01:06:14;;;;;;;9.35;2.83;;;18.50;99.90;;;;;;4989426;28;20481;-66
2023/08/02 01:09:33;;;;;;;5.22;2.28;;;18.50;99.90;;;;;;4988940;28;20073;-65
2023/08/02 01:12:21;;;;;;;4.10;1.95;;;18.40;99.90;;;;;;4978062;28;20042;-66
2023/08/02 01:15:08;;;;;;;5.35;1.70;;;18.40;99.90;;;;;;4987927;28;20054;-66
2023/08/02 01:17:55;;;;;;;5.13;2.25;;;18.40;99.90;;;;;;4989119;28;20431;-65
2023/08/02 01:20:41;;;;;;;4.38;1.92;;;18.50;99.90;;;;;;4986871;28;20044;-65
2023/08/02 01:23:28;;;;;;;3.40;1.95;;;18.40;99.90;;;;;;4984346;28;20054;-65
2023/08/02 01:26:14;;;;;;;2.60;1.80;;;18.50;99.90;;;;;;4987601;28;20432;-66
2023/08/02 01:29:05;;;;;;;2.20;1.60;;;18.50;99.90;;;;;;4977699;28;20069;-65
2023/08/02 01:31:55;;;;;;;6.05;2.08;;;18.50;99.90;;;;;;4976146;28;20082;-66
2023/08/02 01:34:41;;;;;;;2.35;1.60;;;18.50;99.90;;;;;;4982436;28;20038;-67
2023/08/02 01:37:27;;;;;;;4.22;2.30;;;18.50;99.90;;;;;;4990152;28;20484;-66
2023/08/02 01:40:13;;;;;;;6.20;2.10;;;18.50;99.90;;;;;;4987231;28;20217;-66
2023/08/02 01:42:59;;;;;;;5.00;1.90;;;18.50;99.90;;;;;;4970689;28;20531;-66
2023/08/02 01:45:45;;;;;;;2.80;1.70;;;18.50;99.90;;;;;;4977264;28;20610;-67
2023/08/02 01:48:31;;;;;;;4.30;1.88;;;18.50;99.90;;;;;;4986905;28;20069;-65
2023/08/02 01:51:17;;;;;;;3.35;1.90;;;18.50;99.90;;;;;;4989832;28;20187;-65
2023/08/02 01:54:03;;;;;;;3.63;1.83;;;18.60;99.90;;;;;;4985364;28;20125;-65
2023/08/02 01:56:49;;;;;;;5.32;2.00;;;18.50;99.90;;;;;;4987665;28;20051;-65
2023/08/02 01:59:35;;;;;;;4.18;1.58;;;18.50;99.90;;;;;;4983627;28;20050;-65
2023/08/02 02:02:21;;;;;;;4.85;2.35;;;18.50;99.90;;;;;;4988672;28;20459;-65
2023/08/02 02:05:08;;;;;;;5.13;2.05;;;18.60;99.90;;;;;;4985914;28;20773;-65
2023/08/02 02:07:53;;;;;;;4.65;2.10;;;18.60;99.90;;;;;;4973567;28;20492;-64
2023/08/02 02:10:50;;;;;;;4.05;1.75;;;18.50;99.90;;;;;;4979643;28;20039;-65
2023/08/02 02:13:36;;;;;;;3.47;2.13;;;18.50;99.90;;;;;;4981227;28;20030;-65
2023/08/02 02:16:22;;;;;;;3.25;2.05;;;18.50;99.90;;;;;;4988664;28;20129;-65
2023/08/02 02:19:07;;;;;;;3.45;1.83;;;18.50;99.90;;;;;;4986373;28;20133;-65
2023/08/02 02:21:53;;;;;;;3.00;1.70;;;18.50;99.90;;;;;;4986450;28;20034;-65
2023/08/02 02:24:39;;;;;;;5.28;1.77;;;18.50;99.90;;;;;;4990055;28;20613;-65
2023/08/02 02:27:25;;;;;;;3.65;1.92;;;18.60;99.90;;;;;;4991849;28;20100;-64
2023/08/02 02:30:11;;;;;;;3.90;1.80;;;18.50;99.90;;;;;;4992228;28;20050;-64
2023/08/02 02:32:57;;;;;;;4.57;2.17;;;18.50;99.90;;;;;;4990658;28;20034;-65
2023/08/02 02:35:43;;;;;;;3.05;1.60;;;18.50;99.90;;;;;;4992314;28;20046;-66
2023/08/02 02:38:31;;;;;;;4.65;2.00;;;18.50;99.90;;;;;;4989592;28;20124;-64
2023/08/02 02:41:17;;;;;;;4.05;2.10;;;18.50;99.90;;;;;;4976308;28;20053;-64
2023/08/02 02:44:03;;;;;;;4.22;2.05;;;18.50;99.90;;;;;;4986029;28;20466;-64
2023/08/02 02:46:49;;;;;;;4.15;2.10;;;18.50;99.90;;;;;;4992041;28;20070;-64
2023/08/02 02:49:35;;;;;;;3.80;2.03;;;18.50;99.90;;;;;;4986554;28;20125;-64
2023/08/02 02:52:21;;;;;;;4.80;2.63;;;18.50;99.90;;;;;;4976879;28;20077;-64
2023/08/02 02:55:09;;;;;;;3.13;2.05;;;18.50;99.90;;;;;;4987671;28;20523;-64
2023/08/02 02:57:55;;;;;;;3.05;1.80;;;18.40;99.90;;;;;;4991143;28;20054;-64
2023/08/02 03:00:41;;;;;;;3.13;1.85;;;18.40;99.90;;;;;;4976655;28;20049;-64
2023/08/02 03:03:27;;;;;;;3.25;1.90;;;18.40;99.90;;;;;;4987999;28;20720;-63
2023/08/02 03:06:13;;;;;;;5.72;2.15;;;18.40;99.90;;;;;;4989428;28;20053;-64
2023/08/02 03:08:58;;;;;;;3.00;1.60;;;18.40;99.90;;;;;;4976394;28;20074;-65
2023/08/02 03:11:45;;;;;;;3.50;1.98;;;18.40;99.90;;;;;;4990279;28;20038;-66
2023/08/02 03:14:32;;;;;;;3.58;1.90;;;18.30;99.90;;;;;;4984226;28;20735;-65
2023/08/02 03:17:18;;;;;;;6.53;2.13;;;18.30;99.90;;;;;;4961118;28;20058;-66
2023/08/02 03:20:05;;;;;;;4.65;1.90;;;18.30;99.90;;;;;;4986375;28;20050;-65
2023/08/02 03:22:51;;;;;;;4.15;2.67;;;18.30;99.90;;;;;;4971719;28;20133;-64
2023/08/02 03:25:37;;;;;;;2.90;1.80;;;18.30;99.90;;;;;;4978613;28;20041;-64
2023/08/02 03:28:23;;;;;;;5.55;2.63;;;18.30;99.90;;;;;;4972775;28;20052;-64
2023/08/02 03:31:08;;;;;;;4.22;2.10;;;18.30;99.90;;;;;;4995715;28;20070;-63
2023/08/02 03:33:54;;;;;;;3.53;2.10;;;18.30;99.90;;;;;;4987756;28;20109;-64
2023/08/02 03:36:43;;;;;;;5.95;2.35;;;18.20;99.90;;;;;;4990879;28;20042;-64
2023/08/02 03:39:29;;;;;;;7.22;2.50;;;18.20;99.90;;;;;;4989176;28;20061;-64
2023/08/02 03:42:15;;;;;;;4.47;2.50;;;18.20;99.90;;;;;;4991789;28;20815;-65
2023/08/02 03:45:03;;;;;;;6.05;2.38;;;18.20;99.90;;;;;;4986186;28;20046;-65
2023/08/02 03:47:49;;;;;;;3.58;2.10;;;18.20;99.90;;;;;;4989349;28;20045;-64
2023/08/02 03:50:35;;;;;;;6.38;2.10;;;18.20;99.90;;;;;;5005010;28;20073;-64
2023/08/02 03:53:20;;;;;;;7.20;2.53;;;18.20;99.90;;;;;;4989366;28;20070;-64
2023/08/02 03:56:06;;;;;;;3.40;2.25;;;18.20;99.90;;;;;;4972116;28;20426;-64
2023/08/02 03:58:52;;;;;;;3.75;2.20;;;18.20;99.90;;;;;;4988711;28;20046;-64
2023/08/02 04:01:38;;;;;;;5.10;2.22;;;18.30;99.90;;;;;;4980628;28;20555;-64
2023/08/02 04:04:24;;;;;;;4.47;2.90;;;18.30;99.90;;;;;;4977934;28;20459;-64
2023/08/02 04:07:10;;;;;;;5.05;2.35;;;18.30;99.90;;;;;;4970592;28;20039;-64
2023/08/02 04:09:56;;;;;;;5.05;2.95;;;18.30;99.90;;;;;;4972318;28;20053;-64
2023/08/02 04:12:42;;;;;;;5.20;2.22;;;18.30;99.90;;;;;;4986393;28;20385;-64
2023/08/02 04:15:31;;;;;;;5.07;2.35;;;18.40;99.90;;;;;;4989092;28;20046;-64
2023/08/02 04:18:17;;;;;;;4.53;2.70;;;18.40;99.90;;;;;;4988570;28;20081;-65
2023/08/02 04:21:03;;;;;;;4.28;2.40;;;18.40;99.90;;;;;;4987504;28;20046;-64
2023/08/02 04:23:50;;;;;;;3.90;2.13;;;18.40;99.90;;;;;;4987509;28;20046;-62
2023/08/02 04:26:36;;;;;;;4.28;2.40;;;18.40;99.90;;;;;;4990454;28;20040;-64
2023/08/02 04:29:22;;;;;;;3.75;2.22;;;18.40;99.90;;;;;;4978442;28;20039;-65
2023/08/02 04:32:08;;;;;;;4.07;2.35;;;18.50;99.90;;;;;;4973533;28;20146;-64
2023/08/02 04:34:54;;;;;;;5.03;2.85;;;18.50;99.90;;;;;;4984619;28;20077;-64
2023/08/02 04:37:39;;;;;;;5.10;2.72;;;18.50;99.90;;;;;;4975056;28;20042;-64
2023/08/02 04:40:25;;;;;;;4.13;2.47;;;18.50;99.90;;;;;;4989598;28;20030;-63
2023/08/02 04:43:11;;;;;;;9.15;2.40;;;18.50;99.90;;;;;;4984947;28;20080;-63
2023/08/02 04:45:57;;;;;;;3.38;2.38;;;18.60;99.90;;;;;;4988818;28;20046;-63
2023/08/02 04:48:43;;;;;;;4.20;2.08;;;18.60;99.90;;;;;;4985529;28;20050;-64
2023/08/02 04:51:29;;;;;;;3.67;2.15;;;18.60;99.90;;;;;;4989451;28;20069;-64
2023/08/02 04:54:15;;;;;;;3.95;2.25;;;18.60;99.90;;;;;;4987769;28;20062;-64
2023/08/02 04:57:01;;;;;;;4.75;2.30;;;18.60;99.90;;;;;;4987705;28;20076;-64
2023/08/02 04:59:47;;;;;;;4.10;2.38;;;18.60;99.90;;;;;;4982254;28;20047;-64
2023/08/02 05:02:36;;;;;;;4.60;2.10;;;18.70;99.90;;;;;;4975945;28;20835;-64
2023/08/02 05:05:24;;;;;;;4.07;2.10;;;18.70;99.90;;;;;;4973517;28;20070;-63
2023/08/02 05:08:10;;;;;;;5.65;2.25;;;18.70;99.90;;;;;;4980636;28;20042;-64
2023/08/02 05:10:56;;;;;;;5.18;2.03;;;18.70;99.90;;;;;;4980435;28;20046;-64
2023/08/02 05:13:42;;;;;;;2.95;2.03;;;18.70;99.90;;;;;;4979669;28;20074;-64
2023/08/02 05:16:28;;;;;;;2.65;1.73;;;18.80;99.90;;;;;;4987087;28;20061;-64
2023/08/02 05:19:14;;;;;;;6.10;2.75;;;18.80;99.90;;;;;;4981931;28;20046;-63
2023/08/02 05:22:00;;;;;;;3.90;2.50;;;18.80;99.90;;;;;;4986744;28;20383;-64
2023/08/02 05:24:46;;;;;;;3.92;2.05;;;18.80;99.90;;;;;;4986600;28;20061;-68
2023/08/02 05:27:32;;;;;;;4.43;2.30;;;18.90;99.90;;;;;;4987465;28;20042;-73
2023/08/02 05:30:18;;;;;;;2.65;1.90;;;18.90;99.90;;;;;;4985427;28;20054;-74
2023/08/02 05:33:06;;;;;;;2.83;1.70;;;18.90;99.90;;;;;;4976813;28;20046;-74
2023/08/02 05:35:52;;;;;;;4.65;2.22;;;19.00;99.90;;;;;;4988829;28;20038;-69
2023/08/02 05:38:38;;;;;;;4.18;2.10;;;19.00;99.90;;;;;;4977183;28;20053;-69
2023/08/02 05:41:24;;;;;;;4.00;1.95;;;19.10;99.90;;;;;;4981740;28;20070;-69
2023/08/02 05:44:10;;;;;;;4.38;2.40;;;19.10;99.90;;;;;;4974171;28;20487;-69
2023/08/02 05:46:57;;;;;;;4.63;2.58;;;19.10;99.90;;;;;;4987255;28;20483;-69
2023/08/02 05:49:42;;;;;;;5.57;1.88;;;19.20;99.90;;;;;;4982710;28;20031;-70
2023/08/02 05:52:28;;;;;;;4.53;2.13;;;19.30;99.90;;;;;;4987975;28;20504;-69
2023/08/02 05:55:15;;;;;;;3.47;2.22;;;19.30;99.90;;;;;;4986730;28;20046;-69
2023/08/02 05:58:01;;;;;;;3.05;1.92;;;19.50;99.90;;;;;;4988671;28;20088;-69
2023/08/02 06:00:47;;;;;;;3.40;2.03;;;19.50;99.90;;;;;;4962093;28;20081;-69
2023/08/02 06:03:33;;;;;;;4.70;2.30;;;19.60;99.90;;;;;;4990276;28;20046;-69
2023/08/02 06:06:19;;;;;;;4.13;2.03;;;19.70;99.90;;;;;;4992050;28;20034;-70
2023/08/02 06:09:05;;;;;;;4.95;2.70;;;19.80;99.90;;;;;;4990245;28;20047;-69
2023/08/02 06:11:51;;;;;;;3.03;1.88;;;19.90;99.90;;;;;;4991307;28;20097;-71
2023/08/02 06:14:37;;;;;;;3.78;2.15;;;20.00;99.90;;;;;;4988646;28;20057;-70
2023/08/02 06:17:25;;;;;;;4.00;1.80;;;20.10;99.90;;;;;;4985979;28;20389;-69
2023/08/02 06:20:11;;;;;;;2.95;2.00;;;20.20;99.90;;;;;;4978427;28;20101;-69
2023/08/02 06:22:57;;;;;;;3.97;2.60;;;20.30;99.90;;;;;;4973536;28;20054;-69
2023/08/02 06:25:43;;;;;;;4.97;2.20;;;20.30;99.90;;;;;;4993066;28;20117;-69
2023/08/02 06:28:29;;;;;;;3.85;1.75;;;20.30;99.90;;;;;;4990438;28;20050;-69
2023/08/02 06:31:15;;;;;;;6.43;2.20;;;20.40;99.90;;;;;;4985095;28;20112;-69
2023/08/02 06:34:01;;;;;;;4.97;2.42;;;20.40;99.90;;;;;;4988686;28;20129;-70
2023/08/02 06:36:46;;;;;;;6.32;2.22;;;20.40;99.90;;;;;;4991755;28;20038;-69
2023/08/02 06:39:33;;;;;;;5.93;2.00;;;20.50;99.90;;;;;;4990854;28;20050;-69
2023/08/02 06:42:19;;;;;;;6.15;2.15;;;20.60;99.90;;;;;;4979820;28;20058;-69
2023/08/02 06:45:05;;;;;;;5.82;1.60;;;20.60;99.90;;;;;;4984813;28;20138;-70
2023/08/02 06:47:51;;;;;;;6.05;2.10;;;20.60;99.90;;;;;;4991572;28;20133;-70
2023/08/02 06:50:37;;;;;;;4.68;2.15;;;20.60;99.90;;;;;;4974457;28;20034;-69
2023/08/02 06:53:23;;;;;;;4.78;2.00;;;20.50;99.90;;;;;;4989633;28;20051;-70
2023/08/02 06:56:14;;;;;;;3.47;2.13;;;20.50;99.80;;;;;;4990526;28;20046;-70
2023/08/02 06:59:00;;;;;;;5.25;1.92;;;20.50;99.70;;;;;;4982230;28;20129;-70
2023/08/02 07:01:46;;;;;;;4.43;2.22;;;20.50;99.60;;;;;;4990918;28;20243;-70
2023/08/02 07:04:32;;;;;;;3.05;1.80;;;20.40;99.60;;;;;;4986832;28;20411;-66
2023/08/02 07:07:18;;;;;;;5.30;2.30;;;20.40;99.50;;;;;;4985671;28;20046;-74
2023/08/02 07:10:04;;;;;;;5.00;2.60;;;20.40;99.40;;;;;;4985220;28;20038;-69
2023/08/02 07:12:50;;;;;;;6.28;1.90;;;20.40;99.30;;;;;;4971683;28;20039;-70
2023/08/02 07:15:36;;;;;;;6.47;1.98;;;20.40;99.20;;;;;;4985980;28;20470;-70
2023/08/02 07:18:22;;;;;;;3.05;1.80;;;20.40;99.20;;;;;;4986469;28;20458;-70
2023/08/02 07:21:09;;;;;;;3.75;1.90;;;20.40;99.10;;;;;;4969446;28;20038;-70
2023/08/02 07:23:56;;;;;;;4.25;2.20;;;20.40;99.20;;;;;;4987758;28;20050;-69
2023/08/02 07:26:41;;;;;;;5.85;2.65;;;20.40;99.10;;;;;;4988909;28;20066;-70
2023/08/02 07:29:27;;;;;;;3.20;1.83;;;20.40;99.10;;;;;;4981776;28;20672;-70
2023/08/02 07:32:13;;;;;;;3.22;1.98;;;20.40;99.00;;;;;;4984277;28;20038;-70
2023/08/02 07:34:59;;;;;;;5.43;2.53;;;20.40;98.80;;;;;;4988558;28;20053;-69
2023/08/02 07:37:45;;;;;;;2.65;1.60;;;20.50;98.70;;;;;;4989817;28;20058;-70
2023/08/02 07:40:31;;;;;;;4.38;1.77;;;20.50;98.70;;;;;;4987204;28;20384;-69
2023/08/02 07:43:17;;;;;;;4.63;2.00;;;20.50;98.50;;;;;;4988465;28;20051;-69
2023/08/02 07:46:03;;;;;;;4.03;1.75;;;20.50;98.40;;;;;;4989883;28;20182;-69
2023/08/02 07:48:50;;;;;;;3.05;1.77;;;20.60;98.60;;;;;;4968439;28;20051;-69
2023/08/02 07:51:36;;;;;;;4.00;1.83;;;20.60;98.40;;;;;;4991237;28;20062;-71
2023/08/02 07:54:22;;;;;;;4.38;1.92;;;20.60;98.40;;;;;;4979471;28;20097;-72
2023/08/02 07:57:08;;;;;;;3.42;1.88;;;20.70;98.40;;;;;;4986271;28;20482;-72
2023/08/02 07:59:56;;;;;;;3.28;1.50;;;20.70;98.30;;;;;;4984126;28;20408;-73
2023/08/02 08:02:42;;;;;;;3.83;1.90;;;20.80;98.50;;;;;;4985147;28;20134;-73
2023/08/02 08:05:31;;;;;;;5.53;1.88;;;20.90;98.30;;;;;;4988378;28;20050;-73
2023/08/02 08:08:17;;;;;;;3.58;1.73;;;20.90;98.30;;;;;;4986380;28;20558;-73
2023/08/02 08:11:03;;;;;;;4.47;1.90;;;21.00;98.50;;;;;;4984724;28;20049;-69
2023/08/02 08:13:51;;;;;;;4.90;2.25;;;21.10;98.50;;;;;;4986259;28;20050;-70
2023/08/02 08:16:37;;;;;;;5.95;2.03;;;21.20;98.30;;;;;;4985553;28;20076;-68
2023/08/02 08:19:25;;;;;;;8.07;2.53;;;21.30;98.10;;;;;;4978299;28;20519;-69
2023/08/02 08:22:11;;;;;;;5.82;2.15;;;21.40;98.10;;;;;;4982640;28;20382;-69
2023/08/02 08:24:57;;;;;;;3.17;2.05;;;21.60;98.00;;;;;;4977388;28;20078;-70
2023/08/02 08:27:42;;;;;;;3.38;1.77;;;21.70;97.90;;;;;;4970529;28;20047;-69
2023/08/02 08:30:28;;;;;;;3.70;1.50;;;21.80;97.60;;;;;;4977717;28;20716;-69
2023/08/02 08:33:14;;;;;;;4.93;2.33;;;21.80;97.30;;;;;;4985740;28;20426;-68
2023/08/02 08:36:00;;;;;;;5.85;2.20;;;21.90;96.80;;;;;;4988855;28;20042;-69
2023/08/02 08:38:46;;;;;;;5.97;2.10;;;21.90;96.50;;;;;;4985831;28;20054;-68
2023/08/02 08:41:32;;;;;;;2.97;1.60;;;21.90;96.40;;;;;;4988558;28;20034;-69
2023/08/02 08:44:18;;;;;;;3.70;1.80;;;22.00;96.00;;;;;;4985883;28;20042;-69
2023/08/02 08:47:06;;;;;;;4.60;1.70;;;21.90;95.80;;;;;;4978044;28;20073;-69
2023/08/02 08:49:59;;;;;;;2.88;1.52;;;21.90;95.80;;;;;;4987110;28;20046;-69
2023/08/02 08:52:46;;;;;;;7.05;2.70;;;22.00;95.80;;;;;;4984745;28;20054;-69
2023/08/02 08:55:35;;;;;;;4.60;2.55;;;22.00;95.70;;;;;;4984864;28;20403;-69
2023/08/02 08:58:21;;;;;;;5.22;1.85;;;22.10;95.70;;;;;;4986986;28;20072;-70
2023/08/02 09:01:07;;;;;;;7.57;2.33;;;22.10;95.40;;;;;;4988498;28;20484;-70
2023/08/02 09:03:55;;;;;;;5.88;2.35;;;22.20;95.30;;;;;;4972021;28;20046;-68
2023/08/02 09:06:41;;;;;;;2.22;1.40;;;22.20;95.20;;;;;;4984057;28;20049;-68
2023/08/02 09:09:27;;;;;;;4.10;2.00;;;22.30;95.00;;;;;;4981608;28;20481;-68
2023/08/02 09:12:13;;;;;;;9.32;2.30;;;22.40;94.60;;;;;;4989337;28;20089;-69
2023/08/02 09:15:02;;;;;;;3.45;1.60;;;22.40;94.30;;;;;;4989143;28;20125;-69
2023/08/02 09:17:52;;;;;;;3.50;1.50;;;22.50;93.90;;;;;;4969224;28;20065;-69
2023/08/02 09:20:38;;;;;;;2.63;1.27;;;22.50;93.40;;;;;;4956221;28;20070;-70
2023/08/02 09:23:24;;;;;;;2.88;1.50;;;22.60;93.70;;;;;;4985169;28;20129;-70
2023/08/02 09:26:15;;;;;;;1.88;1.50;;;22.70;93.60;;;;;;4969265;28;20042;-69
2023/08/02 09:29:07;;;;;;;2.17;1.40;;;22.80;93.50;;;;;;4976695;28;20030;-69
2023/08/02 09:31:53;;;;;;;3.67;1.35;;;22.80;93.50;;;;;;4976583;28;20043;-69
2023/08/02 09:34:50;;;;;;;2.45;1.40;;;22.90;93.50;;;;;;4988717;28;20034;-69
2023/08/02 09:37:36;;;;;;;2.08;1.20;;;22.90;93.10;;;;;;4991573;28;20054;-69
2023/08/02 09:40:47;;;;;;;2.08;1.30;;;23.00;93.20;;;;;;4988559;28;20035;-69
2023/08/02 09:43:33;;;;;;;3.05;1.50;;;23.10;93.00;;;;;;4988689;28;20110;-68
2023/08/02 09:46:30;;;;;;;3.67;1.52;;;23.30;93.10;;;;;;4992647;28;20038;-70
2023/08/02 09:49:18;;;;;;;3.85;1.40;;;23.40;92.90;;;;;;4977465;28;20130;-69
2023/08/02 09:52:04;;;;;;;2.95;1.40;;;23.40;92.80;;;;;;4988529;28;20574;-70
2023/08/02 09:54:50;;;;;;;2.63;1.23;;;23.50;92.80;;;;;;4987106;28;20043;-70
2023/08/02 09:57:36;;;;;;;2.75;1.20;;;23.60;92.90;;;;;;4991358;28;20058;-70
2023/08/02 10:00:22;;;;;;;2.20;1.42;;;23.70;93.00;;;;;;4975791;28;20049;-70
2023/08/02 10:03:09;;;;;;;1.40;1.10;;;23.80;92.90;;;;;;4989442;28;20050;-70
2023/08/02 10:05:58;;;;;;;4.70;1.40;;;23.90;92.50;;;;;;4981579;28;20046;-70
2023/08/02 10:08:46;;;;;;;3.38;1.52;;;24.00;92.50;;;;;;4991445;28;20515;-70
2023/08/02 10:11:49;;;;;;;3.38;2.00;;;24.10;92.60;;;;;;4990637;28;20077;-69
2023/08/02 10:14:36;;;;;;;4.88;1.60;;;24.10;92.60;;;;;;4989237;28;20598;-70
2023/08/02 10:17:24;;;;;;;3.83;1.40;;;24.20;92.60;;;;;;4992208;28;20069;-69
2023/08/02 10:20:12;;;;;;;4.05;1.73;;;24.30;92.40;;;;;;4990459;28;20100;-68
2023/08/02 10:23:02;;;;;;;4.75;2.13;;;24.40;92.30;;;;;;4991143;28;20466;-69
2023/08/02 10:25:49;;;;;;;2.67;1.30;;;24.50;92.40;;;;;;4990480;28;20149;-68
2023/08/02 10:28:36;;;;;;;3.42;1.48;;;24.60;92.30;;;;;;4986079;28;20057;-68
2023/08/02 10:31:22;;;;;;;2.72;1.40;;;24.70;92.10;;;;;;4990246;28;20447;-70
2023/08/02 10:34:36;;;;;;;2.72;1.58;;;24.80;92.00;;;;;;4980633;28;20046;-69
2023/08/02 10:37:22;;;;;;;1.50;0.90;;;24.80;91.90;;;;;;4990284;28;20046;-69
2023/08/02 10:40:08;;;;;;;1.80;1.38;;;24.80;91.70;;;;;;4989447;28;20463;-68
2023/08/02 10:43:03;;;;;;;2.28;1.23;;;24.80;91.90;;;;;;4987994;28;20124;-69
2023/08/02 10:46:15;;;;;;;2.95;1.23;;;24.90;92.00;;;;;;4987249;28;20093;-69
2023/08/02 10:49:10;;;;;;;1.80;1.00;;;24.90;92.10;;;;;;4990156;28;20046;-68
2023/08/02 10:51:57;;;;;;;4.55;1.20;;;24.90;92.00;;;;;;4989732;28;20125;-69
2023/08/02 10:55:06;;;;;;;3.13;1.80;;;25.00;91.90;;;;;;4989248;28;20511;-69
2023/08/02 10:57:55;;;;;;;2.60;1.40;;;25.10;91.90;;;;;;4989368;28;20141;-70
2023/08/02 11:00:41;;;;;;;1.38;1.08;;;25.10;91.80;;;;;;4984570;28;20042;-69
2023/08/02 11:03:30;;;;;;;1.73;1.00;;;25.10;91.80;;;;;;4988363;28;20042;-69
2023/08/02 11:06:29;;;;;;;2.58;1.45;;;25.10;91.90;;;;;;4991225;28;20072;-68
2023/08/02 11:09:15;;;;;;;2.90;1.58;;;25.10;92.00;;;;;;4988040;28;20030;-68
2023/08/02 11:12:15;;;;;;;2.97;1.67;;;25.10;91.70;;;;;;4984742;28;20037;-69
2023/08/02 11:15:02;;;;;;;2.28;1.35;;;25.10;91.60;;;;;;4989259;28;20050;-69
2023/08/02 11:17:54;;;;;;;3.90;1.73;;;25.00;91.60;;;;;;4990815;28;20109;-70
2023/08/02 11:20:40;;;;;;;3.38;1.50;;;25.00;91.50;;;;;;4984128;28;20126;-71
2023/08/02 11:23:26;;;;;;;5.30;1.38;;;25.00;91.70;;;;;;4989281;28;20038;-70
2023/08/02 11:26:13;;;;;;;3.70;1.92;;;25.00;91.70;;;;;;4975386;28;20473;-68
2023/08/02 11:28:59;;;;;;;2.15;1.50;;;25.00;91.80;;;;;;4988502;28;20042;-69
2023/08/02 11:31:46;;;;;;;2.78;1.25;;;24.90;91.70;;;;;;4989241;28;20136;-68
2023/08/02 11:34:39;;;;;;;3.28;1.45;;;24.90;91.70;;;;;;4978076;28;20284;-68
2023/08/02 11:37:25;;;;;;;4.13;1.77;;;24.80;91.60;;;;;;4980752;28;20292;-69
2023/08/02 11:40:12;;;;;;;5.30;2.30;;;24.90;91.70;;;;;;4980850;28;20062;-69
2023/08/02 11:42:58;;;;;;;2.65;1.60;;;24.90;91.70;;;;;;4981637;28;20046;-69
2023/08/02 11:45:44;;;;;;;5.00;2.17;;;24.90;91.60;;;;;;4981163;28;20439;-69
2023/08/02 11:48:30;;;;;;;2.05;1.67;;;24.90;91.90;;;;;;4977788;28;20054;-69
2023/08/02 11:51:20;;;;;;;3.33;1.70;;;24.80;91.50;;;;;;4984145;28;20043;-69
2023/08/02 11:54:07;;;;;;;2.65;1.75;;;24.80;91.60;;;;;;4979842;28;20078;-69
2023/08/02 11:56:53;;;;;;;4.43;1.60;;;24.80;91.50;;;;;;4988361;28;20078;-68
2023/08/02 11:59:39;;;;;;;2.53;1.63;;;24.80;91.50;;;;;;4975078;28;20042;-69
2023/08/02 12:02:25;;;;;;;2.47;1.50;;;24.80;91.70;;;;;;4988565;28;20042;-69
2023/08/02 12:05:21;;;;;;;3.83;1.77;;;24.80;91.70;;;;;;4986881;28;20110;-69
2023/08/02 12:08:13;;;;;;;4.70;2.10;;;24.90;91.50;;;;;;4987796;28;20112;-68
2023/08/02 12:10:59;;;;;;;3.55;2.00;;;24.90;91.50;;;;;;4986512;28;20142;-68
2023/08/02 12:13:45;;;;;;;4.63;1.77;;;25.00;91.40;;;;;;4988212;28;20459;-69
2023/08/02 12:16:42;;;;;;;4.57;1.80;;;25.10;91.50;;;;;;4989299;28;20398;-68
2023/08/02 12:19:40;;;;;;;3.38;1.75;;;25.10;91.50;;;;;;4986676;28;20233;-70
2023/08/02 12:22:26;;;;;;;2.22;1.70;;;25.20;91.70;;;;;;4988597;28;20125;-68
2023/08/02 12:25:12;;;;;;;2.92;1.73;;;25.30;91.50;;;;;;4988697;28;20491;-69
2023/08/02 12:28:06;;;;;;;3.90;2.10;;;25.40;91.50;;;;;;4983987;28;20096;-69
2023/08/02 12:31:02;;;;;;;5.95;2.25;;;25.50;91.40;;;;;;4982782;28;20181;-69
2023/08/02 12:33:48;;;;;;;3.25;1.70;;;25.60;91.30;;;;;;4985363;28;20073;-69
2023/08/02 12:36:34;;;;;;;5.18;3.05;;;25.70;90.80;;;;;;4985887;28;20049;-68
2023/08/02 12:39:22;;;;;;;3.22;1.90;;;25.70;90.40;;;;;;4985823;28;20148;-69
2023/08/02 12:42:08;;;;;;;4.28;1.83;;;25.70;90.30;;;;;;4971640;28;20455;-69
2023/08/02 12:44:54;;;;;;;3.92;2.00;;;25.60;90.10;;;;;;4985024;28;20042;-69
2023/08/02 12:47:40;;;;;;;3.10;1.92;;;25.60;90.00;;;;;;4988343;28;20042;-68
2023/08/02 12:50:26;;;;;;;3.75;1.83;;;25.50;90.10;;;;;;4982312;28;20030;-71
2023/08/02 12:53:12;;;;;;;3.42;2.00;;;25.40;90.10;;;;;;4985317;28;20470;-68
2023/08/02 12:55:58;;;;;;;3.90;1.80;;;25.30;90.00;;;;;;4986950;28;20046;-68
2023/08/02 12:58:44;;;;;;;3.90;2.05;;;25.30;90.30;;;;;;4979530;28;20152;-68
2023/08/02 13:01:30;;;;;;;3.55;1.92;;;25.30;90.60;;;;;;4977655;28;20548;-67
2023/08/02 13:04:16;;;;;;;4.43;1.88;;;25.30;90.80;;;;;;4980987;28;20057;-66
2023/08/02 13:07:03;;;;;;;2.92;1.98;;;25.20;91.10;;;;;;4975102;28;20114;-68
2023/08/02 13:09:50;;;;;;;3.72;2.15;;;25.20;91.00;;;;;;4970043;28;20694;-68
2023/08/02 13:12:37;;;;;;;3.38;1.70;;;25.10;91.10;;;;;;4987548;28;20104;-68
2023/08/02 13:15:23;;;;;;;3.53;2.17;;;25.10;91.30;;;;;;4983157;28;20456;-68
2023/08/02 13:18:09;;;;;;;3.30;1.98;;;25.10;91.40;;;;;;4983309;28;20503;-67
2023/08/02 13:20:55;;;;;;;4.05;2.03;;;25.00;91.90;;;;;;4982413;28;20404;-68
2023/08/02 13:23:41;;;;;;;4.63;2.33;;;24.90;92.10;;;;;;4984855;28;20065;-67
2023/08/02 13:26:27;;;;;;;5.22;2.75;;;24.80;92.70;;;;;;4987141;28;20042;-68
2023/08/02 13:29:12;;;;;;;3.65;2.80;;;24.60;93.10;;;;;;4983035;28;20047;-68
2023/08/02 13:31:58;;;;;;;8.18;3.67;;;24.50;93.70;;;;;;4986695;28;20034;-65
2023/08/02 13:34:44;;;;;;;5.45;2.30;;;24.30;94.10;;;;;;4986024;28;20519;-65
2023/08/02 13:37:31;;;;;;;3.90;2.28;;;24.10;94.30;;;;;;4973228;28;20178;-68
2023/08/02 13:40:18;;;;;;;6.65;3.05;;;23.90;94.60;;;;;;4985577;28;20130;-71
2023/08/02 13:43:04;;;;;;;3.55;2.42;;;23.80;94.80;;;;;;4986888;28;20676;-72
2023/08/02 13:45:49;;;;;;;4.35;2.40;;;23.70;95.10;;;;;;4968933;28;20141;-68
2023/08/02 13:48:35;;;;;;;5.85;2.35;;;23.60;95.20;;;;;;4976275;28;20499;-67
2023/08/02 13:51:21;;;;;;;3.90;2.60;;;23.50;95.30;;;;;;4984057;28;20133;-71
2023/08/02 13:54:07;;;;;;;6.40;2.50;;;23.50;95.60;;;;;;4978187;28;20532;-69
2023/08/02 13:56:53;;;;;;;6.03;2.30;;;23.50;95.70;;;;;;4986338;28;20050;-69
2023/08/02 13:59:39;;;;;;;8.43;2.92;;;23.40;95.70;;;;;;4980828;28;20281;-69
2023/08/02 14:02:25;;;;;;;5.82;3.00;;;23.40;95.80;;;;;;4976011;28;20038;-69
2023/08/02 14:05:11;;;;;;;3.83;2.85;;;23.50;95.80;;;;;;4984986;28;20486;-69
2023/08/02 14:07:57;;;;;;;3.80;2.40;;;23.50;95.90;;;;;;4974191;28;20069;-69
2023/08/02 14:10:45;;;;;;;4.63;2.08;;;23.50;95.60;;;;;;4988660;28;20149;-71
2023/08/02 14:13:31;;;;;;;3.83;1.73;;;23.50;95.30;;;;;;4982515;28;20042;-70
2023/08/02 14:16:16;;;;;;;5.22;2.22;;;23.60;95.50;;;;;;4978262;28;20047;-73
2023/08/02 14:19:03;;;;;;;6.53;2.13;;;23.70;95.50;;;;;;4981850;28;20085;-66
2023/08/02 14:21:49;;;;;;;4.22;2.35;;;23.70;95.40;;;;;;4985116;28;20118;-70
2023/08/02 14:24:35;;;;;;;3.42;1.52;;;23.80;95.40;;;;;;4989780;28;20046;-69
2023/08/02 14:27:21;;;;;;;3.10;1.88;;;23.80;95.10;;;;;;4990568;28;20125;-67
2023/08/02 14:30:07;;;;;;;6.88;2.40;;;23.80;95.10;;;;;;4990027;28;20042;-67
2023/08/02 14:32:53;;;;;;;2.40;1.60;;;23.90;95.20;;;;;;4995373;28;20176;-67